createdAt,value
2022-08-19T00:03:23.370Z,3.8
2022-08-19T00:08:23.347Z,4.1
2022-08-19T00:13:23.439Z,4.1
2022-08-19T00:18:23.473Z,3.9
2022-08-19T00:23:23.484Z,3.8
2022-08-19T00:28:23.627Z,3.9
2022-08-19T00:33:23.794Z,4.6
2022-08-19T00:38:35.103Z,4
2022-08-19T00:43:23.647Z,4.2
2022-08-19T00:48:23.695Z,4.5
2022-08-19T00:53:23.733Z,4.1
2022-08-19T00:58:23.797Z,4.8
2022-08-19T01:03:23.821Z,4.2
2022-08-19T01:08:23.876Z,5
2022-08-19T01:13:23.786Z,4.6
2022-08-19T01:18:23.859Z,4.5
2022-08-19T01:23:23.843Z,4.4
2022-08-19T01:28:34.158Z,4.1
2022-08-19T01:33:23.828Z,4.5
2022-08-19T01:38:23.877Z,4.6
2022-08-19T01:43:23.783Z,4.2
2022-08-19T01:48:23.833Z,4.1
2022-08-19T01:53:23.766Z,4.1
2022-08-19T01:58:23.759Z,4.4
2022-08-19T02:03:23.715Z,3.9
2022-08-19T02:08:23.723Z,3.9
2022-08-19T02:13:26.221Z,4
2022-08-19T02:18:28.111Z,4.7
2022-08-19T02:23:23.643Z,4.5
2022-08-19T02:28:23.606Z,4
2022-08-19T02:33:23.621Z,4.6
2022-08-19T02:38:23.568Z,4.4
2022-08-19T02:43:23.549Z,4.4
2022-08-19T02:48:23.565Z,4.4
2022-08-19T02:53:23.469Z,4.1
2022-08-19T02:58:23.456Z,4.5
2022-08-19T03:03:23.421Z,4.5
2022-08-19T03:08:23.419Z,4.5
2022-08-19T03:13:23.337Z,4.6
2022-08-19T03:18:23.479Z,4.6
2022-08-19T03:23:23.279Z,4.9
2022-08-19T03:28:23.232Z,4.5
2022-08-19T03:33:28.628Z,4.7
2022-08-19T03:38:23.084Z,4.8
2022-08-19T03:43:23.043Z,5
2022-08-19T03:48:22.976Z,5.6
2022-08-19T03:53:22.950Z,5.1
2022-08-19T03:58:22.883Z,4.5
2022-08-19T04:03:22.815Z,5.1
2022-08-19T04:08:22.801Z,5
2022-08-19T04:13:22.723Z,4.7
2022-08-19T04:18:22.619Z,4.8
2022-08-19T04:23:23.602Z,4.8
2022-08-19T04:28:23.699Z,5.1
2022-08-19T04:33:26.506Z,4.6
2022-08-19T04:38:22.376Z,4.5
2022-08-19T04:43:22.287Z,4.8
2022-08-19T04:48:27.129Z,4.9
2022-08-19T04:53:22.235Z,5.5
2022-08-19T04:58:22.191Z,4.7
2022-08-19T05:03:22.150Z,4.6
2022-08-19T05:08:31.520Z,5.4
2022-08-19T05:13:22.078Z,5.3
2022-08-19T05:18:22.037Z,5.3
2022-08-19T05:23:22.901Z,4.8
2022-08-19T05:28:21.934Z,4.8
2022-08-19T05:33:21.908Z,5
2022-08-19T05:38:21.905Z,4.4
2022-08-19T05:43:21.827Z,4.9
2022-08-19T05:48:21.828Z,5.4
2022-08-19T05:53:21.956Z,5.1
2022-08-19T05:58:23.274Z,4.9
2022-08-19T06:03:21.768Z,5.1
2022-08-19T06:08:33.703Z,5.1
2022-08-19T06:13:21.801Z,4.9
2022-08-19T06:18:21.792Z,5
2022-08-19T06:23:21.789Z,5
2022-08-19T06:28:22.146Z,4.9
2022-08-19T06:33:21.773Z,5.2
2022-08-19T06:38:21.796Z,5.8
2022-08-19T06:43:21.726Z,5.8
2022-08-19T06:48:21.754Z,6.1
2022-08-19T06:53:21.771Z,5.9
2022-08-19T06:58:21.775Z,5.8
2022-08-19T07:03:21.796Z,5.8
2022-08-19T07:08:21.874Z,6
2022-08-19T07:13:21.856Z,7
2022-08-19T07:18:21.891Z,6.6
2022-08-19T07:23:21.910Z,6.2
2022-08-19T07:28:24.406Z,6
2022-08-19T07:33:22.015Z,6.5
2022-08-19T07:38:22.053Z,6.6
2022-08-19T07:43:22.076Z,6.9
2022-08-19T07:48:22.158Z,6.7
2022-08-19T07:53:22.211Z,7
2022-08-19T07:58:22.288Z,6.2
2022-08-19T08:03:22.377Z,7
2022-08-19T08:08:22.459Z,7
2022-08-19T08:13:22.461Z,7.3
2022-08-19T08:18:23.721Z,6.5
2022-08-19T08:23:22.603Z,6.4
2022-08-19T08:28:22.642Z,6.4
2022-08-19T08:33:32.701Z,6.4
2022-08-19T08:38:22.767Z,6.2
2022-08-19T08:43:22.829Z,6.6
2022-08-19T08:48:24.245Z,6.4
2022-08-19T08:53:27.450Z,6.2
2022-08-19T08:58:23.083Z,6.3
2022-08-19T09:03:23.268Z,6
2022-08-19T09:08:23.266Z,6.1
2022-08-19T09:13:23.370Z,6.2
2022-08-19T09:18:23.497Z,6.1
2022-08-19T09:23:26.825Z,5.9
2022-08-19T09:28:27.126Z,6.7
2022-08-19T09:33:23.866Z,6
2022-08-19T09:38:24.006Z,6.3
2022-08-19T09:43:32.981Z,6
2022-08-19T09:48:24.287Z,5.9
2022-08-19T09:53:25.457Z,5.6
2022-08-19T09:58:26.699Z,5.8
2022-08-19T10:03:25.515Z,5.1
2022-08-19T10:08:26.413Z,5
2022-08-19T10:13:25.054Z,4.8
2022-08-19T10:18:25.248Z,4.9
2022-08-19T10:23:25.395Z,4.3
2022-08-19T10:28:25.602Z,4.5
2022-08-19T10:33:38.895Z,4.2
2022-08-19T10:38:31.759Z,3.5
2022-08-19T10:43:26.467Z,3.7
2022-08-19T10:48:26.430Z,4.2
2022-08-19T10:53:26.473Z,3.7
2022-08-19T10:58:26.792Z,3.6
2022-08-19T11:03:26.875Z,3.8
2022-08-19T11:08:27.043Z,4.1
2022-08-19T11:13:27.260Z,3.8
2022-08-19T11:18:27.510Z,3.6
2022-08-19T11:23:27.745Z,3.2
2022-08-19T11:28:27.984Z,3.5
2022-08-19T11:33:28.243Z,3.8
2022-08-19T11:38:28.485Z,3.4
2022-08-19T11:43:28.723Z,3.4
2022-08-19T11:48:28.980Z,4.1
2022-08-19T11:53:29.211Z,3.3
2022-08-19T11:58:29.512Z,3.3
2022-08-19T12:03:29.738Z,4.2
2022-08-19T12:08:29.955Z,3.9
2022-08-19T12:13:30.751Z,3.7
2022-08-19T12:18:31.703Z,4
2022-08-19T12:23:30.696Z,3.5
2022-08-19T12:28:30.958Z,3.3
2022-08-19T12:33:31.222Z,3.8
2022-08-19T12:38:31.484Z,3.9
2022-08-19T12:43:31.754Z,3.4
2022-08-19T12:48:34.386Z,3.8
2022-08-19T12:53:32.250Z,4.6
2022-08-19T13:01:05.458Z,4
2022-08-19T13:03:32.776Z,4
2022-08-19T13:08:33.138Z,4.1
2022-08-19T13:13:33.293Z,4.3
2022-08-19T13:18:33.552Z,3.7
2022-08-19T13:23:33.753Z,3.9
2022-08-19T13:28:34.033Z,5.3
2022-08-19T13:33:34.305Z,4
2022-08-19T13:38:34.585Z,3.7
2022-08-19T13:43:34.856Z,3.9
2022-08-19T13:48:35.097Z,3.9
2022-08-19T13:53:35.362Z,3.5
2022-08-19T13:58:35.633Z,4.4
2022-08-19T14:03:35.941Z,4
2022-08-19T14:08:37.159Z,3.9
2022-08-19T14:13:36.466Z,4.3
2022-08-19T14:18:36.746Z,4.3
2022-08-19T14:23:37.066Z,4.6
2022-08-19T14:28:37.332Z,7.9
2022-08-19T14:33:37.646Z,4.9
2022-08-19T14:38:37.967Z,6.2
2022-08-19T14:43:38.312Z,6.7
2022-08-19T14:48:38.587Z,19.4
2022-08-19T14:53:38.903Z,4.2
2022-08-19T14:58:39.299Z,2.7
2022-08-19T15:03:39.514Z,2.8
2022-08-19T15:08:39.817Z,2.7
2022-08-19T15:13:40.105Z,2.5
2022-08-19T15:18:40.382Z,2
2022-08-19T15:23:40.669Z,2.5
2022-08-19T15:28:40.904Z,2.5
2022-08-19T15:33:41.254Z,2.4
2022-08-19T15:38:45.922Z,2.1
2022-08-19T15:43:41.766Z,2.6
2022-08-19T15:48:42.066Z,2.9
2022-08-19T15:53:42.316Z,2.8
2022-08-19T15:58:42.509Z,2.6
2022-08-19T16:03:42.769Z,2.8
2022-08-19T16:08:48.823Z,2.2
2022-08-19T16:13:43.213Z,2.1
2022-08-19T16:18:43.453Z,2.2
2022-08-19T16:23:43.680Z,2
2022-08-19T16:28:43.909Z,3.2
2022-08-19T16:33:44.149Z,2.1
2022-08-19T16:38:44.395Z,2.2
2022-08-19T16:43:44.620Z,2
2022-08-19T16:48:44.884Z,2.2
2022-08-19T16:53:45.124Z,2.6
2022-08-19T16:58:45.334Z,3
2022-08-19T17:03:45.571Z,2.4
2022-08-19T17:08:48.699Z,2.6
2022-08-19T17:13:47.889Z,1.8
2022-08-19T17:18:46.314Z,2
2022-08-19T17:23:46.499Z,1.8
2022-08-19T17:28:46.734Z,6
2022-08-19T17:33:48.272Z,2.4
2022-08-19T17:38:47.148Z,2.4
2022-08-19T17:43:47.340Z,2.8
2022-08-19T17:48:51.099Z,2.2
2022-08-19T17:53:47.737Z,2.4
2022-08-19T17:58:53.812Z,2.6
2022-08-19T18:03:48.135Z,2
2022-08-19T18:08:48.394Z,4.9
2022-08-19T18:13:48.620Z,4.8
2022-08-19T18:18:48.750Z,2.3
2022-08-19T18:23:48.975Z,1.7
2022-08-19T18:28:49.962Z,2.2
2022-08-19T18:33:49.239Z,2.3
2022-08-19T18:38:49.396Z,2.6
2022-08-19T18:43:51.515Z,2.2
2022-08-19T18:48:49.554Z,1.8
2022-08-19T18:53:49.685Z,1.6
2022-08-19T18:58:49.791Z,1.5
2022-08-19T19:03:49.941Z,2.6
2022-08-19T19:08:50.065Z,2.1
2022-08-19T19:13:50.186Z,2.5
2022-08-19T19:18:50.289Z,2.9
2022-08-19T19:23:50.403Z,3.3
2022-08-19T19:28:50.495Z,3.6
2022-08-19T19:33:50.564Z,3.5
2022-08-19T19:38:50.688Z,2.8
2022-08-19T19:44:04.555Z,3.2
2022-08-19T19:48:50.798Z,3.5
2022-08-19T19:53:50.858Z,6
2022-08-19T20:03:51.108Z,5.2
2022-08-19T20:08:51.044Z,3.2
2022-08-19T20:13:51.129Z,7.3
2022-08-19T20:18:51.170Z,11.5
2022-08-19T20:24:09.959Z,4
2022-08-19T20:28:58.375Z,3
2022-08-19T20:33:51.468Z,3.4
2022-08-19T20:38:51.607Z,3.4
2022-08-19T20:43:51.636Z,3.4
2022-08-19T20:48:51.751Z,2.8
2022-08-19T20:53:51.803Z,3.1
2022-08-19T20:58:54.416Z,3.1
2022-08-19T21:03:51.950Z,3.5
2022-08-19T21:08:52.186Z,3.2
2022-08-19T21:13:52.265Z,2.7
2022-08-19T21:18:52.207Z,2.9
2022-08-19T21:23:52.225Z,2.6
2022-08-19T21:28:52.258Z,3
2022-08-19T21:33:52.321Z,3.3
2022-08-19T21:38:52.366Z,2.9
2022-08-19T21:43:52.444Z,2.5
2022-08-19T21:48:52.423Z,3.4
2022-08-19T21:53:52.886Z,3
2022-08-19T21:58:52.557Z,2.9
2022-08-19T22:03:52.621Z,3
2022-08-19T22:08:52.684Z,3
2022-08-19T22:13:52.723Z,3
2022-08-19T22:18:52.801Z,2.7
2022-08-19T22:23:52.890Z,2.6
2022-08-19T22:28:52.897Z,3.4
2022-08-19T22:33:53.245Z,3
2022-08-19T22:38:53.018Z,2.9
2022-08-19T22:43:53.104Z,2.8
2022-08-19T22:48:56.668Z,3
2022-08-19T22:53:53.259Z,2.7
2022-08-19T22:58:53.316Z,3
2022-08-19T23:03:53.340Z,2.7
2022-08-19T23:08:53.358Z,2.5
2022-08-19T23:13:53.405Z,2.4
2022-08-19T23:18:56.049Z,2.4
2022-08-19T23:23:53.489Z,2.6
2022-08-19T23:28:53.520Z,2.3
2022-08-19T23:33:53.579Z,2.4
2022-08-19T23:38:53.593Z,2.4
2022-08-19T23:43:55.071Z,2.9
2022-08-19T23:48:53.649Z,2.4
2022-08-19T23:53:53.668Z,2.7
2022-08-19T23:58:53.735Z,2.3
